createdAt,value
2023-04-21T00:05:23.698Z,24.30
2023-04-21T00:11:25.821Z,27.55
2023-04-21T00:17:28.168Z,27.60
2023-04-21T00:23:30.147Z,27.30
2023-04-21T00:29:31.962Z,27.40
2023-04-21T00:35:34.403Z,29.05
2023-04-21T00:41:36.977Z,30.35
2023-04-21T00:47:38.771Z,31.23
2023-04-21T00:53:41.080Z,32.72
2023-04-21T00:59:43.748Z,33.63
2023-04-21T01:05:46.698Z,31.52
2023-04-21T01:12:23.992Z,30.10
2023-04-21T01:18:25.819Z,31.85
2023-04-21T01:24:37.760Z,26.73
2023-04-21T01:30:39.744Z,33.00
2023-04-21T01:36:41.579Z,34.85
2023-04-21T01:42:45.793Z,29.67
2023-04-21T01:48:48.834Z,31.67
2023-04-21T01:54:50.743Z,32.72
2023-04-21T02:00:52.493Z,34.22
2023-04-21T02:06:54.342Z,34.00
2023-04-21T02:12:56.107Z,30.27
2023-04-21T02:18:58.125Z,29.20
2023-04-21T02:25:00.028Z,28.13
2023-04-21T02:31:01.883Z,28.00
2023-04-21T02:37:03.686Z,27.17
2023-04-21T02:43:05.459Z,26.92
2023-04-21T02:49:07.250Z,25.73
2023-04-21T02:55:09.195Z,27.05
2023-04-21T03:01:10.955Z,26.52
2023-04-21T03:07:13.806Z,23.73
2023-04-21T03:13:16.425Z,25.77
2023-04-21T03:19:18.300Z,23.30
2023-04-21T03:25:20.534Z,24.85
2023-04-21T03:31:22.278Z,27.48
2023-04-21T03:37:24.077Z,24.17
2023-04-21T03:43:25.876Z,27.15
2023-04-21T03:49:27.653Z,27.15
2023-04-21T03:55:29.570Z,28.50
2023-04-21T04:01:31.553Z,24.92
2023-04-21T04:07:33.878Z,22.17
2023-04-21T04:13:35.831Z,26.63
2023-04-21T04:19:37.695Z,26.88
2023-04-21T04:25:40.160Z,26.92
2023-04-21T04:31:42.087Z,25.40
2023-04-21T04:37:44.025Z,27.85
2023-04-21T04:43:46.609Z,26.25
2023-04-21T04:49:48.401Z,24.52
2023-04-21T04:55:50.313Z,24.17
2023-04-21T05:01:52.707Z,20.40
2023-04-21T05:07:54.568Z,21.88
2023-04-21T05:13:56.788Z,22.40
2023-04-21T05:19:58.561Z,21.85
2023-04-21T05:26:02.656Z,24.33
2023-04-21T05:32:06.074Z,24.98
2023-04-21T05:38:07.986Z,20.50
2023-04-21T05:44:09.868Z,18.98
2023-04-21T05:50:11.860Z,17.15
2023-04-21T05:56:14.214Z,13.68
2023-04-21T06:02:16.035Z,21.02
2023-04-21T06:08:17.836Z,21.60
2023-04-21T06:14:19.719Z,22.42
2023-04-21T06:20:21.671Z,23.85
2023-04-21T06:26:23.385Z,16.67
2023-04-21T06:32:25.225Z,19.05
2023-04-21T06:38:27.000Z,18.08
2023-04-21T06:44:29.422Z,18.50
2023-04-21T06:50:31.173Z,18.52
2023-04-21T06:56:33.400Z,16.63
2023-04-21T07:02:35.329Z,19.30
2023-04-21T07:08:37.399Z,20.60
2023-04-21T07:14:39.348Z,20.55
2023-04-21T07:20:41.386Z,18.48
2023-04-21T07:26:43.110Z,16.95
2023-04-21T07:32:45.133Z,14.02
2023-04-21T07:38:46.918Z,14.52
2023-04-21T07:44:49.035Z,17.70
2023-04-21T07:50:51.156Z,16.50
2023-04-21T07:56:52.832Z,18.35
2023-04-21T08:02:54.677Z,17.20
2023-04-21T08:08:56.566Z,16.17
2023-04-21T08:14:58.510Z,14.63
2023-04-21T08:21:00.596Z,11.52
2023-04-21T08:27:02.403Z,13.13
2023-04-21T08:33:04.260Z,15.60
2023-04-21T08:39:06.360Z,18.92
2023-04-21T08:45:08.892Z,14.35
2023-04-21T08:51:10.938Z,13.93
2023-04-21T08:57:15.890Z,10.68
2023-04-21T09:03:27.500Z,14.60
2023-04-21T09:09:29.345Z,15.13
2023-04-21T09:15:39.294Z,13.25
2023-04-21T09:21:44.357Z,13.10
2023-04-21T09:27:47.289Z,12.23
2023-04-21T09:34:00.454Z,10.70
2023-04-21T09:40:04.809Z,13.75
2023-04-21T09:46:07.501Z,10.63
2023-04-21T09:52:17.715Z,15.25
2023-04-21T09:58:24.585Z,14.93
2023-04-21T10:04:29.177Z,14.35
2023-04-21T10:10:32.016Z,13.45
2023-04-21T10:16:37.024Z,16.92
2023-04-21T10:22:39.772Z,11.60
2023-04-21T10:28:46.020Z,11.68
2023-04-21T10:34:49.151Z,8.82
2023-04-21T10:40:51.529Z,13.70
2023-04-21T10:46:53.992Z,10.93
2023-04-21T10:52:59.381Z,9.45
2023-04-21T10:59:01.422Z,12.13
2023-04-21T11:05:03.707Z,8.77
2023-04-21T11:11:05.705Z,7.38
2023-04-21T11:17:19.183Z,10.68
2023-04-21T11:23:20.923Z,9.32
2023-04-21T11:29:23.025Z,7.38
2023-04-21T11:35:24.841Z,11.90
2023-04-21T11:41:26.607Z,8.50
2023-04-21T11:47:28.966Z,6.75
2023-04-21T11:53:30.948Z,11.63
2023-04-21T11:59:32.780Z,12.85
2023-04-21T12:05:36.250Z,7.65
2023-04-21T12:11:38.053Z,9.23
2023-04-21T12:17:44.567Z,8.82
2023-04-21T12:23:46.411Z,10.52
2023-04-21T12:29:48.140Z,8.13
2023-04-21T12:35:49.925Z,6.47
2023-04-21T12:41:51.926Z,8.18
2023-04-21T12:47:55.060Z,10.25
2023-04-21T12:53:56.971Z,6.80
2023-04-21T12:59:58.755Z,8.10
2023-04-21T13:06:00.660Z,7.85
2023-04-21T13:12:02.784Z,8.80
2023-04-21T13:18:04.782Z,12.63
2023-04-21T13:24:06.744Z,11.63
2023-04-21T13:30:10.926Z,6.20
2023-04-21T13:36:13.272Z,11.00
2023-04-21T13:42:15.115Z,10.95
2023-04-21T13:48:16.995Z,9.07
2023-04-21T13:54:18.858Z,8.82
2023-04-21T14:00:21.006Z,9.40
2023-04-21T14:06:22.803Z,7.97
2023-04-21T14:12:26.406Z,8.52
2023-04-21T14:24:32.302Z,11.23
2023-04-21T14:30:36.302Z,7.43
2023-04-21T14:36:38.059Z,6.22
2023-04-21T14:42:41.794Z,11.48
2023-04-21T14:48:44.686Z,7.53
2023-04-21T14:54:46.589Z,8.53
2023-04-21T15:00:48.514Z,6.53
2023-04-21T15:06:52.152Z,7.93
2023-04-21T15:12:54.393Z,7.05
2023-04-21T15:18:56.239Z,9.68
2023-04-21T15:24:58.626Z,9.57
2023-04-21T15:31:00.497Z,5.28
2023-04-21T15:37:02.546Z,9.68
2023-04-21T15:43:04.662Z,7.40
2023-04-21T15:49:06.419Z,6.90
2023-04-21T15:55:08.660Z,9.30
2023-04-21T16:01:10.913Z,5.47
2023-04-21T16:07:13.013Z,13.05
2023-04-21T16:13:15.034Z,6.30
2023-04-21T16:19:17.219Z,10.27
2023-04-21T16:25:20.042Z,7.50
2023-04-21T16:31:22.099Z,8.03
2023-04-21T16:37:23.973Z,9.70
2023-04-21T16:43:26.471Z,7.60
2023-04-21T16:49:30.198Z,5.93
2023-04-21T16:55:32.100Z,4.88
2023-04-21T17:01:33.959Z,7.45
2023-04-21T17:07:36.033Z,7.30
2023-04-21T17:13:39.302Z,8.57
2023-04-21T17:19:41.494Z,5.70
2023-04-21T17:25:43.184Z,4.80
2023-04-21T17:31:45.041Z,5.88
2023-04-21T17:37:47.141Z,7.18
2023-04-21T17:43:49.118Z,5.78
2023-04-21T17:49:50.959Z,5.63
2023-04-21T17:55:53.574Z,10.20
2023-04-21T18:01:57.773Z,5.90
2023-04-21T18:08:00.696Z,13.73
2023-04-21T18:14:02.480Z,8.40
2023-04-21T18:20:05.250Z,7.43
2023-04-21T18:26:08.512Z,6.40
2023-04-21T18:32:10.471Z,7.10
2023-04-21T18:38:13.486Z,10.75
2023-04-21T18:44:16.591Z,6.93
2023-04-21T18:50:19.063Z,6.40
2023-04-21T18:56:21.003Z,5.53
2023-04-21T19:02:22.983Z,8.20
2023-04-21T19:08:40.847Z,5.93
2023-04-21T19:14:47.642Z,7.95
2023-04-21T19:20:50.198Z,7.63
2023-04-21T19:26:52.016Z,6.53
2023-04-21T19:32:55.045Z,9.85
2023-04-21T19:38:56.959Z,6.55
2023-04-21T19:44:58.935Z,5.50
2023-04-21T19:51:01.021Z,7.22
2023-04-21T19:57:02.799Z,5.30
2023-04-21T20:03:06.595Z,15.48
2023-04-21T20:09:10.313Z,7.80
2023-04-21T20:15:12.916Z,8.25
2023-04-21T20:21:14.779Z,7.80
2023-04-21T20:27:16.587Z,8.57
2023-04-21T20:33:18.407Z,6.47
2023-04-21T20:39:21.507Z,7.47
2023-04-21T20:45:23.252Z,4.80
2023-04-21T20:51:26.714Z,5.55
2023-04-21T20:57:28.610Z,6.75
2023-04-21T21:03:30.827Z,8.43
2023-04-21T21:09:32.816Z,11.23
2023-04-21T21:15:35.267Z,9.38
2023-04-21T21:21:36.953Z,6.95
2023-04-21T21:27:38.777Z,7.78
2023-04-21T21:33:40.545Z,10.38
2023-04-21T21:39:42.253Z,9.15
2023-04-21T21:45:44.414Z,7.75
2023-04-21T21:51:46.336Z,6.28
2023-04-21T21:57:48.118Z,7.60
2023-04-21T22:03:50.176Z,9.40
2023-04-21T22:09:52.514Z,8.80
2023-04-21T22:15:54.496Z,7.20
2023-04-21T22:21:56.520Z,10.95
2023-04-21T22:27:58.440Z,7.72
2023-04-21T22:34:00.237Z,7.63
2023-04-21T22:40:02.036Z,10.43
2023-04-21T22:46:03.914Z,8.30
2023-04-21T22:52:05.951Z,12.65
2023-04-21T22:58:07.787Z,10.50
2023-04-21T23:04:09.776Z,6.82
2023-04-21T23:10:11.718Z,10.13
2023-04-21T23:16:13.525Z,9.32
2023-04-21T23:22:15.334Z,6.55
2023-04-21T23:28:17.188Z,6.57
2023-04-21T23:34:19.160Z,8.18
2023-04-21T23:40:21.009Z,6.65
2023-04-21T23:46:22.859Z,8.32
2023-04-21T23:52:25.006Z,8.50
2023-04-21T23:58:26.797Z,5.15
